Queen Of Nanaimo — VCNX — position and weather

sailwx.info

Track history (hours):
 
Tides and Currents Weather Stations Pressure Air Temp Water Temp Dewpoint Dewpoint Depression Visibility Wind Speed Wind Dir Waves Ship Positions

Queen Of Nanaimo

Last reported at 2014-Oct-23 05:17 UTC. Time now 2014-Oct-23 07:52 UTC.
Position N 48°51' W 123°26'.

Length 130 m; draft 4 m.

Type: Ship. MMSI: 316001254.

Date/timePositionNaut miles runAvg speedWind from/ knotsBaromVisibWave heightAir tempDewpointWater temp
2014-Oct-23 05:17N 48°51' W 123°26'5 7.5
2014-Oct-23 04:33N 48°48' W 123°19'5 4.8
2014-Oct-23 03:33N 48°53' W 123°19'1010.4
2014-Oct-23 02:34N 49°00' W 123°08'0 0.3
2014-Oct-23 01:33N 49°00' W 123°08'1110.5
2014-Oct-23 00:33N 48°53' W 123°19'2 2.0
2014-Oct-22 23:33N 48°51' W 123°20'4 3.5
2014-Oct-22 22:33N 48°50' W 123°25'4 1.4
2014-Oct-22 19:33N 48°48' W 123°19'3 3.2
2014-Oct-22 18:32N 48°51' W 123°21'7 7.1
2014-Oct-22 17:34N 48°57' W 123°14'6 5.6
2014-Oct-22 16:33N 49°00' W 123°08'1010.1
2014-Oct-22 15:33N 48°53' W 123°18'2 2.2
2014-Oct-22 14:30N 48°51' W 123°20'3 3.5
2014-Oct-22 13:33N 48°49' W 123°24'3 1.4
2014-Oct-22 11:33N 48°51' W 123°27'0 0.0
2014-Oct-22 10:31N 48°51' W 123°27'0 0.0
2014-Oct-22 09:25N 48°51' W 123°27'0 0.0
2014-Oct-22 08:32N 48°51' W 123°27'0 0.0
2014-Oct-22 07:32N 48°51' W 123°27'0 0.0
2014-Oct-22 06:32N 48°51' W 123°27'0 0.0
2014-Oct-22 05:33N 48°51' W 123°27'6 6.1
2014-Oct-22 04:33N 48°48' W 123°19'5 4.5
2014-Oct-22 03:33N 48°53' W 123°19'9 8.7
2014-Oct-22 02:33N 48°59' W 123°10'2 2.0
2014-Oct-22 01:33N 49°00' W 123°08'1110.7
2014-Oct-22 00:33N 48°53' W 123°19'2 1.7
2014-Oct-21 23:24N 48°51' W 123°20'3 3.9
2014-Oct-21 22:32N 48°49' W 123°24'3 1.2
2014-Oct-21 20:20N 48°51' W 123°27'6 6.9
2014-Oct-21 19:27N 48°48' W 123°19'4 4.2
2014-Oct-21 18:33N 48°52' W 123°19'9 8.5
2014-Oct-21 17:33N 48°58' W 123°10'3 2.6
2014-Oct-21 16:33N 49°00' W 123°08'1110.6
2014-Oct-21 15:34N 48°53' W 123°19'2 1.9
2014-Oct-21 14:33N 48°51' W 123°20'5 0.8
2014-Oct-21 08:32N 48°51' W 123°27'1 0.3
2014-Oct-21 05:07N 48°50' W 123°25'5 7.7
2014-Oct-21 04:29N 48°48' W 123°19'5 5.0
2014-Oct-21 03:34N 48°53' W 123°19'8 8.4
2014-Oct-21 02:33N 48°59' W 123°10'2 2.2
2014-Oct-21 01:33N 49°00' W 123°08'1110.7
2014-Oct-21 00:33N 48°53' W 123°19'2 1.9
2014-Oct-20 23:32N 48°51' W 123°20'3 3.4
2014-Oct-20 22:32N 48°49' W 123°24'3 1.1
2014-Oct-20 19:24N 48°48' W 123°19'4 4.2
2014-Oct-20 18:33N 48°52' W 123°19'9 8.9
2014-Oct-20 17:34N 48°59' W 123°11'3 2.8
2014-Oct-20 16:33N 49°00' W 123°08'1110.5
2014-Oct-20 15:32N 48°53' W 123°19'2 2.3
2014-Oct-20 14:32N 48°50' W 123°20'3 3.3
2014-Oct-20 13:32N 48°50' W 123°25'1 0.2
2014-Oct-20 07:25N 48°51' W 123°27'0 0.0
2014-Oct-20 06:25N 48°51' W 123°27'5 6.2
2014-Oct-20 05:34N 48°52' W 123°19'1111.3
2014-Oct-20 04:33N 49°00' W 123°08'1211.5
2014-Oct-20 03:34N 48°51' W 123°19'1 1.4
2014-Oct-20 02:34N 48°53' W 123°18'1010.1
2014-Oct-20 01:33N 49°00' W 123°08'8 8.1
2014-Oct-20 00:33N 48°54' W 123°16'4 4.3
2014-Oct-19 23:33N 48°51' W 123°20'5 2.3
2014-Oct-19 21:30N 48°51' W 123°27'6 6.2
2014-Oct-19 20:33N 48°48' W 123°19'4 3.9
2014-Oct-19 19:33N 48°52' W 123°21'8 8.4
2014-Oct-19 18:34N 48°58' W 123°12'4 3.7
2014-Oct-19 17:34N 49°00' W 123°08'1010.1
2014-Oct-19 16:34N 48°53' W 123°18'2 2.3
2014-Oct-19 15:32N 48°51' W 123°20'4 3.4
2014-Oct-19 14:29N 48°50' W 123°25'1 0.3
2014-Oct-19 10:09N 48°51' W 123°27'0 0.0
2014-Oct-19 08:28N 48°51' W 123°27'0 0.0
2014-Oct-19 07:14N 48°51' W 123°27'0 0.0
2014-Oct-19 06:33N 48°51' W 123°27'5 4.7
2014-Oct-19 05:32N 48°51' W 123°20'4 4.6
2014-Oct-19 04:34N 48°55' W 123°17'8 8.3
2014-Oct-19 03:33N 49°00' W 123°08'0 0.0
2014-Oct-19 02:33N 49°00' W 123°08'0 0.5
2014-Oct-19 01:33N 48°60' W 123°08'1010.2
2014-Oct-19 00:33N 48°53' W 123°19'4 4.0
2014-Oct-18 23:32N 48°49' W 123°20'4 1.3
2014-Oct-18 20:32N 48°51' W 123°25'1313.4
2014-Oct-18 19:34N 48°59' W 123°09'3 3.2
2014-Oct-18 18:34N 48°57' W 123°13'8 7.0
2014-Oct-18 17:27N 48°51' W 123°20'2 2.1
2014-Oct-18 16:33N 48°53' W 123°19'1110.7
2014-Oct-18 15:33N 49°00' W 123°08'6 5.6
2014-Oct-18 14:33N 48°56' W 123°13'10 1.1
2014-Oct-18 05:07N 48°51' W 123°26'5 8.4
2014-Oct-18 04:30N 48°48' W 123°19'5 4.9
2014-Oct-18 03:33N 48°53' W 123°19'1010.3
2014-Oct-18 02:33N 48°60' W 123°08'0 0.4
2014-Oct-18 01:33N 49°00' W 123°08'1110.6
2014-Oct-18 00:33N 48°53' W 123°19'2 1.8
2014-Oct-17 23:26N 48°51' W 123°20'3 3.4
2014-Oct-17 22:33N 48°49' W 123°24'3 3.2
2014-Oct-17 21:31N 48°51' W 123°27'0 0.0
2014-Oct-17 20:23N 48°51' W 123°27'6 6.9
2014-Oct-17 19:30N 48°48' W 123°19'4 4.4
2014-Oct-17 18:34N 48°52' W 123°18'8 8.2
2014-Oct-17 17:33N 48°58' W 123°10'3 2.6
2014-Oct-17 16:33N 49°00' W 123°08'10 9.9
2014-Oct-17 15:33N 48°53' W 123°18'3 2.5
2014-Oct-17 14:28N 48°51' W 123°20'4 3.8
2014-Oct-17 13:22N 48°51' W 123°26'0 0.1
2014-Oct-17 10:29N 48°51' W 123°27'1 0.1
2014-Oct-17 05:06N 48°51' W 123°26'6 9.9
2014-Oct-17 04:33N 48°48' W 123°19'5 4.7
2014-Oct-17 03:34N 48°53' W 123°19'9 9.5
2014-Oct-17 02:34N 48°60' W 123°09'1 1.0
2014-Oct-17 01:33N 49°00' W 123°08'1110.7
2014-Oct-17 00:34N 48°53' W 123°19'2 1.9
2014-Oct-16 23:33N 48°51' W 123°20'3 3.4
2014-Oct-16 22:33N 48°49' W 123°24'3 2.1
2014-Oct-16 21:17N 48°51' W 123°27'6 3.5
2014-Oct-16 19:33N 48°48' W 123°19'4 3.8
2014-Oct-16 18:33N 48°52' W 123°21'8 8.3
2014-Oct-16 17:33N 48°58' W 123°14'4 4.2
2014-Oct-16 16:33N 49°00' W 123°08'10 9.6
2014-Oct-16 15:33N 48°53' W 123°18'3 2.8
2014-Oct-16 14:29N 48°51' W 123°20'3 3.5
2014-Oct-16 13:33N 48°50' W 123°25'2 1.4
2014-Oct-16 12:08N 48°51' W 123°27'1 0.1
2014-Oct-16 05:04N 48°51' W 123°26'5 9.1
2014-Oct-16 04:31N 48°48' W 123°19'4 3.7
2014-Oct-16 03:33N 48°52' W 123°19'9 9.1
2014-Oct-16 02:33N 48°59' W 123°10'2 2.3
2014-Oct-16 01:33N 49°00' W 123°08'1110.6
2014-Oct-16 00:33N 48°53' W 123°19'2 1.7
2014-Oct-15 23:24N 48°51' W 123°20'3 3.7
2014-Oct-15 22:33N 48°49' W 123°23'3 0.9
2014-Oct-15 19:34N 48°48' W 123°19'4 3.6
2014-Oct-15 18:32N 48°52' W 123°21'8 8.2
2014-Oct-15 17:34N 48°58' W 123°13'4 4.3
2014-Oct-15 16:33N 49°00' W 123°08'1010.6
2014-Oct-15 15:33N 48°53' W 123°19'2 2.0
2014-Oct-15 14:34N 48°51' W 123°20'4 0.4
2014-Oct-15 05:03N 48°51' W 123°25'5 8.0
2014-Oct-15 04:26N 48°48' W 123°19'4 4.8
2014-Oct-15 03:33N 48°52' W 123°18'9 9.1
2014-Oct-15 02:33N 48°59' W 123°10'2 1.7
2014-Oct-15 01:33N 49°00' W 123°08'1110.7
2014-Oct-15 00:33N 48°53' W 123°19'2 1.9
2014-Oct-14 23:30N 48°51' W 123°20'3 3.4
2014-Oct-14 22:33N 48°49' W 123°24'2 0.9
2014-Oct-14 20:07N 48°51' W 123°26'5 9.1
2014-Oct-14 19:33N 48°48' W 123°19'5 4.6
2014-Oct-14 18:33N 48°53' W 123°19'1110.8
2014-Oct-14 17:34N 49°00' W 123°08'4 4.2
2014-Oct-14 16:34N 48°57' W 123°12'8 8.2
2014-Oct-14 15:33N 48°51' W 123°21'4 3.5
2014-Oct-14 14:32N 48°48' W 123°19'5 0.6
2014-Oct-14 06:20N 48°50' W 123°25'1013.4
2014-Oct-14 05:34N 48°57' W 123°13'5 4.6
2014-Oct-14 04:34N 49°00' W 123°08'1212.0
2014-Oct-14 03:33N 48°51' W 123°20'2 2.4
2014-Oct-14 02:33N 48°53' W 123°18'1010.1
2014-Oct-14 01:33N 49°00' W 123°08'8 8.0
2014-Oct-14 00:33N 48°54' W 123°16'4 4.4
2014-Oct-13 23:33N 48°51' W 123°20'3 0.7
2014-Oct-13 19:31N 48°48' W 123°19'3 3.0
2014-Oct-13 18:31N 48°51' W 123°20'9 8.9
2014-Oct-13 17:33N 48°58' W 123°12'4 3.9
2014-Oct-13 16:34N 49°00' W 123°08'11 8.8
2014-Oct-13 15:21N 48°53' W 123°19'2 2.5
2014-Oct-13 14:33N 48°51' W 123°20'4 3.5
2014-Oct-13 13:30N 48°50' W 123°25'3 0.3
2014-Oct-13 05:29N 48°51' W 123°21'  
Track history (hours):
 
Tides and Currents Weather Stations Pressure Air Temp Water Temp Dewpoint Dewpoint Depression Visibility Wind Speed Wind Dir Waves Ship Positions

Queen Of Nanaimo

Last reported at 2014-Oct-23 05:17 UTC. Time now 2014-Oct-23 07:52 UTC.
Position N 48°51' W 123°26'.

Length 130 m; draft 4 m.

Type: Ship. MMSI: 316001254.

Date/timePositionNaut miles runAvg speedWind from/ knotsBaromVisibWave heightAir tempDewpointWater temp
2014-Oct-23 05:17N 48°51' W 123°26'5 7.5
2014-Oct-23 04:33N 48°48' W 123°19'5 4.8
2014-Oct-23 03:33N 48°53' W 123°19'1010.4
2014-Oct-23 02:34N 49°00' W 123°08'0 0.3
2014-Oct-23 01:33N 49°00' W 123°08'1110.5
2014-Oct-23 00:33N 48°53' W 123°19'2 2.0
2014-Oct-22 23:33N 48°51' W 123°20'4 3.5
2014-Oct-22 22:33N 48°50' W 123°25'4 1.4
2014-Oct-22 19:33N 48°48' W 123°19'3 3.2
2014-Oct-22 18:32N 48°51' W 123°21'7 7.1
2014-Oct-22 17:34N 48°57' W 123°14'6 5.6
2014-Oct-22 16:33N 49°00' W 123°08'1010.1
2014-Oct-22 15:33N 48°53' W 123°18'2 2.2
2014-Oct-22 14:30N 48°51' W 123°20'3 3.5
2014-Oct-22 13:33N 48°49' W 123°24'3 1.4
2014-Oct-22 11:33N 48°51' W 123°27'0 0.0
2014-Oct-22 10:31N 48°51' W 123°27'0 0.0
2014-Oct-22 09:25N 48°51' W 123°27'0 0.0
2014-Oct-22 08:32N 48°51' W 123°27'0 0.0
2014-Oct-22 07:32N 48°51' W 123°27'0 0.0
2014-Oct-22 06:32N 48°51' W 123°27'0 0.0
2014-Oct-22 05:33N 48°51' W 123°27'6 6.1
2014-Oct-22 04:33N 48°48' W 123°19'5 4.5
2014-Oct-22 03:33N 48°53' W 123°19'9 8.7
2014-Oct-22 02:33N 48°59' W 123°10'2 2.0
2014-Oct-22 01:33N 49°00' W 123°08'1110.7
2014-Oct-22 00:33N 48°53' W 123°19'2 1.7
2014-Oct-21 23:24N 48°51' W 123°20'3 3.9
2014-Oct-21 22:32N 48°49' W 123°24'3 1.2
2014-Oct-21 20:20N 48°51' W 123°27'6 6.9
2014-Oct-21 19:27N 48°48' W 123°19'4 4.2
2014-Oct-21 18:33N 48°52' W 123°19'9 8.5
2014-Oct-21 17:33N 48°58' W 123°10'3 2.6
2014-Oct-21 16:33N 49°00' W 123°08'1110.6
2014-Oct-21 15:34N 48°53' W 123°19'2 1.9
2014-Oct-21 14:33N 48°51' W 123°20'5 0.8
2014-Oct-21 08:32N 48°51' W 123°27'1 0.3
2014-Oct-21 05:07N 48°50' W 123°25'5 7.7
2014-Oct-21 04:29N 48°48' W 123°19'5 5.0
2014-Oct-21 03:34N 48°53' W 123°19'8 8.4
2014-Oct-21 02:33N 48°59' W 123°10'2 2.2
2014-Oct-21 01:33N 49°00' W 123°08'1110.7
2014-Oct-21 00:33N 48°53' W 123°19'2 1.9
2014-Oct-20 23:32N 48°51' W 123°20'3 3.4
2014-Oct-20 22:32N 48°49' W 123°24'3 1.1
2014-Oct-20 19:24N 48°48' W 123°19'4 4.2
2014-Oct-20 18:33N 48°52' W 123°19'9 8.9
2014-Oct-20 17:34N 48°59' W 123°11'3 2.8
2014-Oct-20 16:33N 49°00' W 123°08'1110.5
2014-Oct-20 15:32N 48°53' W 123°19'2 2.3
2014-Oct-20 14:32N 48°50' W 123°20'3 3.3
2014-Oct-20 13:32N 48°50' W 123°25'1 0.2
2014-Oct-20 07:25N 48°51' W 123°27'0 0.0
2014-Oct-20 06:25N 48°51' W 123°27'5 6.2
2014-Oct-20 05:34N 48°52' W 123°19'1111.3
2014-Oct-20 04:33N 49°00' W 123°08'1211.5
2014-Oct-20 03:34N 48°51' W 123°19'1 1.4
2014-Oct-20 02:34N 48°53' W 123°18'1010.1
2014-Oct-20 01:33N 49°00' W 123°08'8 8.1
2014-Oct-20 00:33N 48°54' W 123°16'4 4.3
2014-Oct-19 23:33N 48°51' W 123°20'5 2.3
2014-Oct-19 21:30N 48°51' W 123°27'6 6.2
2014-Oct-19 20:33N 48°48' W 123°19'4 3.9
2014-Oct-19 19:33N 48°52' W 123°21'8 8.4
2014-Oct-19 18:34N 48°58' W 123°12'4 3.7
2014-Oct-19 17:34N 49°00' W 123°08'1010.1
2014-Oct-19 16:34N 48°53' W 123°18'2 2.3
2014-Oct-19 15:32N 48°51' W 123°20'4 3.4
2014-Oct-19 14:29N 48°50' W 123°25'1 0.3
2014-Oct-19 10:09N 48°51' W 123°27'0 0.0
2014-Oct-19 08:28N 48°51' W 123°27'0 0.0
2014-Oct-19 07:14N 48°51' W 123°27'0 0.0
2014-Oct-19 06:33N 48°51' W 123°27'5 4.7
2014-Oct-19 05:32N 48°51' W 123°20'4 4.6
2014-Oct-19 04:34N 48°55' W 123°17'8 8.3
2014-Oct-19 03:33N 49°00' W 123°08'0 0.0
2014-Oct-19 02:33N 49°00' W 123°08'0 0.5
2014-Oct-19 01:33N 48°60' W 123°08'1010.2
2014-Oct-19 00:33N 48°53' W 123°19'4 4.0
2014-Oct-18 23:32N 48°49' W 123°20'4 1.3
2014-Oct-18 20:32N 48°51' W 123°25'1313.4
2014-Oct-18 19:34N 48°59' W 123°09'3 3.2
2014-Oct-18 18:34N 48°57' W 123°13'8 7.0
2014-Oct-18 17:27N 48°51' W 123°20'2 2.1
2014-Oct-18 16:33N 48°53' W 123°19'1110.7
2014-Oct-18 15:33N 49°00' W 123°08'6 5.6
2014-Oct-18 14:33N 48°56' W 123°13'10 1.1
2014-Oct-18 05:07N 48°51' W 123°26'5 8.4
2014-Oct-18 04:30N 48°48' W 123°19'5 4.9
2014-Oct-18 03:33N 48°53' W 123°19'1010.3
2014-Oct-18 02:33N 48°60' W 123°08'0 0.4
2014-Oct-18 01:33N 49°00' W 123°08'1110.6
2014-Oct-18 00:33N 48°53' W 123°19'2 1.8
2014-Oct-17 23:26N 48°51' W 123°20'3 3.4
2014-Oct-17 22:33N 48°49' W 123°24'3 3.2
2014-Oct-17 21:31N 48°51' W 123°27'0 0.0
2014-Oct-17 20:23N 48°51' W 123°27'6 6.9
2014-Oct-17 19:30N 48°48' W 123°19'4 4.4
2014-Oct-17 18:34N 48°52' W 123°18'8 8.2
2014-Oct-17 17:33N 48°58' W 123°10'3 2.6
2014-Oct-17 16:33N 49°00' W 123°08'10 9.9
2014-Oct-17 15:33N 48°53' W 123°18'3 2.5
2014-Oct-17 14:28N 48°51' W 123°20'4 3.8
2014-Oct-17 13:22N 48°51' W 123°26'0 0.1
2014-Oct-17 10:29N 48°51' W 123°27'1 0.1
2014-Oct-17 05:06N 48°51' W 123°26'6 9.9
2014-Oct-17 04:33N 48°48' W 123°19'5 4.7
2014-Oct-17 03:34N 48°53' W 123°19'9 9.5
2014-Oct-17 02:34N 48°60' W 123°09'1 1.0
2014-Oct-17 01:33N 49°00' W 123°08'1110.7
2014-Oct-17 00:34N 48°53' W 123°19'2 1.9
2014-Oct-16 23:33N 48°51' W 123°20'3 3.4
2014-Oct-16 22:33N 48°49' W 123°24'3 2.1
2014-Oct-16 21:17N 48°51' W 123°27'6 3.5
2014-Oct-16 19:33N 48°48' W 123°19'4 3.8
2014-Oct-16 18:33N 48°52' W 123°21'8 8.3
2014-Oct-16 17:33N 48°58' W 123°14'4 4.2
2014-Oct-16 16:33N 49°00' W 123°08'10 9.6
2014-Oct-16 15:33N 48°53' W 123°18'3 2.8
2014-Oct-16 14:29N 48°51' W 123°20'3 3.5
2014-Oct-16 13:33N 48°50' W 123°25'2 1.4
2014-Oct-16 12:08N 48°51' W 123°27'1 0.1
2014-Oct-16 05:04N 48°51' W 123°26'5 9.1
2014-Oct-16 04:31N 48°48' W 123°19'4 3.7
2014-Oct-16 03:33N 48°52' W 123°19'9 9.1
2014-Oct-16 02:33N 48°59' W 123°10'2 2.3
2014-Oct-16 01:33N 49°00' W 123°08'1110.6
2014-Oct-16 00:33N 48°53' W 123°19'2 1.7
2014-Oct-15 23:24N 48°51' W 123°20'3 3.7
2014-Oct-15 22:33N 48°49' W 123°23'3 0.9
2014-Oct-15 19:34N 48°48' W 123°19'4 3.6
2014-Oct-15 18:32N 48°52' W 123°21'8 8.2
2014-Oct-15 17:34N 48°58' W 123°13'4 4.3
2014-Oct-15 16:33N 49°00' W 123°08'1010.6
2014-Oct-15 15:33N 48°53' W 123°19'2 2.0
2014-Oct-15 14:34N 48°51' W 123°20'4 0.4
2014-Oct-15 05:03N 48°51' W 123°25'5 8.0
2014-Oct-15 04:26N 48°48' W 123°19'4 4.8
2014-Oct-15 03:33N 48°52' W 123°18'9 9.1
2014-Oct-15 02:33N 48°59' W 123°10'2 1.7
2014-Oct-15 01:33N 49°00' W 123°08'1110.7
2014-Oct-15 00:33N 48°53' W 123°19'2 1.9
2014-Oct-14 23:30N 48°51' W 123°20'3 3.4
2014-Oct-14 22:33N 48°49' W 123°24'2 0.9
2014-Oct-14 20:07N 48°51' W 123°26'5 9.1
2014-Oct-14 19:33N 48°48' W 123°19'5 4.6
2014-Oct-14 18:33N 48°53' W 123°19'1110.8
2014-Oct-14 17:34N 49°00' W 123°08'4 4.2
2014-Oct-14 16:34N 48°57' W 123°12'8 8.2
2014-Oct-14 15:33N 48°51' W 123°21'4 3.5
2014-Oct-14 14:32N 48°48' W 123°19'5 0.6
2014-Oct-14 06:20N 48°50' W 123°25'1013.4
2014-Oct-14 05:34N 48°57' W 123°13'5 4.6
2014-Oct-14 04:34N 49°00' W 123°08'1212.0
2014-Oct-14 03:33N 48°51' W 123°20'2 2.4
2014-Oct-14 02:33N 48°53' W 123°18'1010.1
2014-Oct-14 01:33N 49°00' W 123°08'8 8.0
2014-Oct-14 00:33N 48°54' W 123°16'4 4.4
2014-Oct-13 23:33N 48°51' W 123°20'3 0.7
2014-Oct-13 19:31N 48°48' W 123°19'3 3.0
2014-Oct-13 18:31N 48°51' W 123°20'9 8.9
2014-Oct-13 17:33N 48°58' W 123°12'4 3.9
2014-Oct-13 16:34N 49°00' W 123°08'11 8.8
2014-Oct-13 15:21N 48°53' W 123°19'2 2.5
2014-Oct-13 14:33N 48°51' W 123°20'4 3.5
2014-Oct-13 13:30N 48°50' W 123°25'3 0.3
2014-Oct-13 05:29N 48°51' W 123°21'  

Dump ship's entire track history